Grandfield, OK (73546)

4:36 AM CST on February 22, 2017 (GMT -0600)
Old Corral | | Change Station
Active Advisory: Fire Weather Watch

Elev 1112 ft 34.12 °N, 98.84 °W | Updated 20 seconds ago

Clear
Clear
43.6 °F
Feels Like 44 °F
N
2.0
Wind Variable Wind from ENE

Today
High -- | Low -- °F
--% Chance of Precip.
Yesterday
High -- | Low -- °F
Precip. -- in
Pressure 29.85 in
Visibility 10.0 miles
Clouds Clear
Windchill 44 °F
Dew Point 39 °F
Humidity 85%
Rainfall 0.00 in
Snow Depth Not available.
7:11 AM 6:25 PM
Waning Crescent, 18% visible
METAR KFDR 220953Z AUTO 26006KT 10SM CLR 08/04 A2987 RMK AO2 SLP106 T00780039
Pressure 29.85 in
Visibility 10.0 miles
Clouds Clear
Windchill 44 °F
Dew Point 39 °F
Humidity 85%
Rainfall 0.00 in
Snow Depth Not available.
7:11 AM 6:25 PM
Waning Crescent, 18% visible
METAR KFDR 220953Z AUTO 26006KT 10SM CLR 08/04 A2987 RMK AO2 SLP106 T00780039

Get Your Daily Forecast Email!

Thanks for signing up!

Be on the lookout for a verification email in your inbox.

You'll start receiving the daily forecast at 8 AM.

×

10-Day Weather Forecast

Almanac

Astronomy

Feb. 22, 2017 Rise Set
Actual Time
Civil Twilight
Nautical Twilight
Astronomical Twilight
Moon
Length of Visible Light
Length of Day
Tomorrow will be .
, % of the Moon is Illuminated

Today's Extremes

State Highs State Lows

Community

WunderPhotos

Upload Photos

1,962,540 photos uploaded!

WunderBlog® & News

Nearby

Air Quality

  Air Quality AQ Index Pollutant
Not available.

Snow Depth

Station Depth Elevation

Earthquake Activity

City Distance Mag. Time & Date
Minimum magnitude displayed is 2.5.

Coastal Water Temperatures

Place Temperature

Stations

Nearby Weather Stations

Station Location Temp. Windchill Dew Point Humidity Wind Precip. Elev Updated Type
                   

Watches & Warnings

Fire Weather Watch
Issued: 3:48 AM CST Feb. 22, 2017 – National Weather Service

... Fire Weather Watch remains in effect from Thursday morning
through Thursday evening for windy conditions... warm
temperatures and low relative humidity for western Oklahoma and
far western North Texas...

* timing... late Thursday morning into Thursday evening.

* Wind... west and southwest, 20 to 25 mph, with gusts to 40 mph.

* Humidity... 10 to 20 percent.

* Temperature... low 80s to 90.

* Impacts... any fires that develop will likely spread rapidly.
Outdoor burning is strongly discouraged.

Precautionary/preparedness actions...

A Fire Weather Watch means that critical fire weather conditions
are forecast to occur. Listen for later forecasts and possible
red flag warnings.



Mahale